Time;durP1;ratioP1;P1;durP2;ratioP2;P2;SDS_P1;SDS_P2;PMS_P1;PMS_P2;Temp;Humidity;BMP_temperature;BMP_pressure;BME280_temperature;BME280_humidity;BME280_pressure;Samples;Min_cycle;Max_cycle;Signal;HPM_P1;HPM_P2
2023/06/25 00:02:10;;;;;;;5.33;4.30;;;;;;;19.02;70.00;98469.16;5055051;28;20213;-79
2023/06/25 00:04:36;;;;;;;4.60;4.20;;;;;;;18.98;70.51;98476.13;5057599;28;20209;-79
2023/06/25 00:07:03;;;;;;;5.30;4.53;;;;;;;18.89;70.29;98469.63;5065142;28;20225;-79
2023/06/25 00:09:29;;;;;;;4.70;4.30;;;;;;;18.90;70.18;98476.63;5077842;28;20196;-79
2023/06/25 00:11:56;;;;;;;5.10;4.20;;;;;;;18.88;70.85;98486.03;5077759;28;20205;-78
2023/06/25 00:14:22;;;;;;;4.43;4.03;;;;;;;18.87;70.90;98477.13;5077970;28;20208;-79
2023/06/25 00:16:49;;;;;;;4.87;4.50;;;;;;;18.87;71.55;98476.34;5077875;28;20263;-79
2023/06/25 00:19:17;;;;;;;5.83;4.20;;;;;;;18.83;71.88;98476.03;5071271;28;20225;-79
2023/06/25 00:21:44;;;;;;;5.70;4.13;;;;;;;18.80;70.68;98471.19;5057242;28;20660;-79
2023/06/25 00:24:10;;;;;;;8.03;4.30;;;;;;;18.77;69.74;98473.59;5057385;28;20689;-79
2023/06/25 00:26:37;;;;;;;5.00;4.50;;;;;;;18.81;71.14;98467.41;5057017;28;20270;-79
2023/06/25 00:29:04;;;;;;;6.57;4.47;;;;;;;18.80;70.12;98468.50;5057949;28;20231;-79
2023/06/25 00:31:30;;;;;;;4.87;4.33;;;;;;;18.79;69.86;98474.13;5057888;28;20288;-79
2023/06/25 00:33:57;;;;;;;5.63;4.73;;;;;;;18.82;70.69;98462.84;5057686;28;20205;-79
2023/06/25 00:36:23;;;;;;;4.50;4.10;;;;;;;18.76;70.74;98464.69;5057943;28;20283;-79
2023/06/25 00:38:50;;;;;;;5.53;4.20;;;;;;;18.77;70.35;98471.69;5057669;28;20256;-79
2023/06/25 00:41:16;;;;;;;3.90;3.60;;;;;;;18.67;71.28;98468.94;5058222;28;20207;-79
2023/06/25 00:43:43;;;;;;;6.73;4.20;;;;;;;18.57;71.50;98458.13;5066635;28;20212;-79
2023/06/25 00:46:12;;;;;;;5.43;4.77;;;;;;;18.56;71.90;98451.13;5077732;28;20725;-79
2023/06/25 00:48:45;;;;;;;7.20;4.47;;;;;;;18.52;72.01;98458.09;5072325;28;20656;-79
2023/06/25 00:51:11;;;;;;;5.90;4.73;;;;;;;18.45;73.31;98454.81;5071017;28;20307;-79
2023/06/25 00:53:39;;;;;;;4.70;4.20;;;;;;;18.32;74.74;98451.72;5078026;28;20598;-79
2023/06/25 00:56:06;;;;;;;5.40;4.90;;;;;;;18.32;74.99;98465.97;5077519;28;20566;-79
2023/06/25 00:58:37;;;;;;;5.63;5.13;;;;;;;18.29;75.36;98463.00;5071703;28;20588;-79
2023/06/25 01:01:11;;;;;;;5.73;5.03;;;;;;;18.32;75.48;98451.72;5057626;28;20285;-79
2023/06/25 01:03:42;;;;;;;5.30;4.77;;;;;;;18.26;75.38;98460.81;5057563;28;20193;-79
2023/06/25 01:06:29;;;;;;;7.47;4.90;;;;;;;18.20;75.42;98460.00;5057725;28;20259;-79
2023/06/25 01:08:59;;;;;;;5.73;4.53;;;;;;;18.16;76.42;98445.41;5055947;28;20205;-79
2023/06/25 01:11:26;;;;;;;6.27;5.00;;;;;;;18.05;78.22;98443.69;5068649;28;20288;-79
2023/06/25 01:13:52;;;;;;;5.13;4.70;;;;;;;17.99;78.62;98441.22;5076852;28;20213;-79
2023/06/25 01:16:19;;;;;;;7.03;4.70;;;;;;;18.03;78.39;98443.16;5077018;28;20687;-79
2023/06/25 01:18:45;;;;;;;6.07;4.70;;;;;;;18.00;78.52;98440.19;5070838;28;20249;-79
2023/06/25 01:21:13;;;;;;;5.23;4.73;;;;;;;18.01;78.61;98439.09;5056555;28;20206;-79
2023/06/25 01:23:39;;;;;;;5.40;4.90;;;;;;;17.96;79.09;98442.56;5057296;28;20220;-79
2023/06/25 01:26:06;;;;;;;6.77;4.80;;;;;;;17.95;79.38;98440.94;5057337;28;20225;-79
2023/06/25 01:28:32;;;;;;;7.27;5.50;;;;;;;17.93;80.08;98426.94;5071620;28;20669;-79
2023/06/25 01:30:58;;;;;;;5.63;4.87;;;;;;;17.94;79.60;98425.03;5077274;28;20232;-79
2023/06/25 01:33:26;;;;;;;6.60;4.57;;;;;;;17.90;80.60;98432.81;5076271;28;20204;-79
2023/06/25 01:35:54;;;;;;;5.93;5.00;;;;;;;17.85;80.88;98430.09;5076681;28;20236;-79
2023/06/25 01:38:21;;;;;;;6.37;5.30;;;;;;;17.85;81.19;98430.09;5058971;28;20228;-79
2023/06/25 01:40:47;;;;;;;6.80;5.60;;;;;;;17.88;81.28;98442.22;5057032;28;20301;-79
2023/06/25 01:43:13;;;;;;;6.07;5.37;;;;;;;17.78;81.06;98431.38;5056857;28;20255;-79
2023/06/25 01:45:40;;;;;;;6.50;5.50;;;;;;;17.76;82.27;98437.00;5056989;28;20205;-79
2023/06/25 01:48:07;;;;;;;5.83;5.23;;;;;;;17.80;82.12;98431.91;5055907;28;20236;-79
2023/06/25 01:50:34;;;;;;;6.17;5.33;;;;;;;17.79;82.19;98425.75;5057012;28;20668;-79
2023/06/25 01:53:00;;;;;;;5.93;5.10;;;;;;;17.70;82.87;98423.78;5056717;28;20226;-79
2023/06/25 01:55:27;;;;;;;6.60;5.80;;;;;;;17.65;84.45;98416.44;5056851;28;20209;-79
2023/06/25 01:57:53;;;;;;;10.40;5.77;;;;;;;17.65;83.87;98419.13;5055660;28;20205;-78
2023/06/25 02:00:20;;;;;;;6.33;5.43;;;;;;;17.64;83.78;98416.72;5056581;28;20208;-80
2023/06/25 02:02:46;;;;;;;6.20;5.50;;;;;;;17.54;85.06;98412.06;5056164;28;20669;-79
2023/06/25 02:05:13;;;;;;;6.60;5.90;;;;;;;17.54;85.71;98412.06;5056375;28;20233;-79
2023/06/25 02:07:39;;;;;;;7.17;5.43;;;;;;;17.47;86.67;98410.66;5056430;28;20279;-79
2023/06/25 02:10:06;;;;;;;7.80;6.10;;;;;;;17.45;86.92;98413.59;5056036;28;20213;-79
2023/06/25 02:12:32;;;;;;;7.70;5.70;;;;;;;17.48;86.50;98407.72;5062240;28;20205;-79
2023/06/25 02:14:59;;;;;;;7.17;6.43;;;;;;;17.40;87.27;98405.47;5067531;28;20656;-79
2023/06/25 02:17:25;;;;;;;8.23;6.50;;;;;;;17.37;86.30;98403.25;5075832;28;20729;-79
2023/06/25 02:19:51;;;;;;;7.17;6.10;;;;;;;17.40;86.04;98410.84;5075851;28;20232;-79
2023/06/25 02:22:18;;;;;;;8.27;6.40;;;;;;;17.30;86.87;98410.72;5055709;28;20213;-79
2023/06/25 02:24:44;;;;;;;8.87;6.23;;;;;;;17.25;88.93;98399.09;5056172;28;20215;-79
2023/06/25 02:27:10;;;;;;;8.70;6.13;;;;;;;17.29;88.62;98401.00;5055745;28;20229;-79
2023/06/25 02:29:37;;;;;;;6.77;6.00;;;;;;;17.37;87.05;98399.78;5056348;28;20205;-79
2023/06/25 02:32:03;;;;;;;6.60;6.00;;;;;;;17.31;88.63;98398.91;5055302;28;20216;-79
2023/06/25 02:34:29;;;;;;;7.50;6.67;;;;;;;17.34;88.86;98403.78;5055871;28;20216;-79
2023/06/25 02:36:56;;;;;;;7.07;6.37;;;;;;;17.38;88.02;98390.63;5056430;28;20221;-79
2023/06/25 02:39:22;;;;;;;8.23;7.07;;;;;;;17.35;88.81;98393.81;5055865;28;20221;-79
2023/06/25 02:41:48;;;;;;;9.50;7.00;;;;;;;17.42;88.07;98392.56;5055603;28;20205;-79
2023/06/25 02:44:15;;;;;;;8.07;7.10;;;;;;;17.41;88.06;98388.28;5055778;28;20205;-79
2023/06/25 02:46:41;;;;;;;7.83;7.03;;;;;;;17.40;87.12;98389.34;5055811;28;20248;-79
2023/06/25 02:49:07;;;;;;;9.37;6.77;;;;;;;17.34;87.84;98392.19;5055287;28;20684;-79
2023/06/25 02:51:34;;;;;;;9.33;6.90;;;;;;;17.32;87.64;98389.75;5055551;28;20205;-79
2023/06/25 02:54:00;;;;;;;9.47;7.40;;;;;;;17.34;88.55;98387.66;5055554;28;20205;-79
2023/06/25 02:56:26;;;;;;;9.67;7.73;;;;;;;17.31;89.57;98390.84;5055213;28;20231;-79
2023/06/25 02:58:53;;;;;;;10.83;7.83;;;;;;;17.27;90.63;98384.34;5055084;28;20235;-79
2023/06/25 03:01:19;;;;;;;7.80;6.97;;;;;;;17.21;90.98;98387.22;5055322;28;20212;-79
2023/06/25 03:03:45;;;;;;;9.07;7.60;;;;;;;17.18;91.31;98379.66;5055074;28;20213;-79
2023/06/25 03:06:12;;;;;;;8.93;7.50;;;;;;;17.12;90.79;98383.38;5054945;28;20225;-79
2023/06/25 03:08:38;;;;;;;8.93;7.67;;;;;;;17.01;92.75;98384.34;5054884;28;20205;-79
2023/06/25 03:11:04;;;;;;;10.03;7.60;;;;;;;16.93;93.92;98387.47;5055274;28;20212;-79
2023/06/25 03:13:31;;;;;;;9.37;7.50;;;;;;;16.91;94.57;98385.03;5055199;28;20211;-79
2023/06/25 03:15:57;;;;;;;8.97;7.47;;;;;;;16.89;94.43;98387.16;5055042;28;20228;-79
2023/06/25 03:18:24;;;;;;;9.47;7.77;;;;;;;16.89;94.96;98394.38;5054930;28;20205;-79
2023/06/25 03:20:50;;;;;;;10.37;7.93;;;;;;;16.93;94.70;98385.59;5054561;28;20227;-79
2023/06/25 03:23:17;;;;;;;11.47;7.93;;;;;;;16.94;95.92;98384.53;5055034;28;20217;-79
2023/06/25 03:25:43;;;;;;;8.97;8.07;;;;;;;17.00;95.03;98385.38;5054723;28;20589;-79
2023/06/25 03:28:10;;;;;;;9.30;7.70;;;;;;;17.07;95.61;98384.13;5054640;28;20580;-79
2023/06/25 03:30:36;;;;;;;8.87;7.47;;;;;;;16.97;95.84;98378.63;5055057;28;20537;-79
2023/06/25 03:33:02;;;;;;;8.53;7.40;;;;;;;16.96;96.19;98382.38;5054969;28;20579;-79
2023/06/25 03:35:29;;;;;;;9.00;8.10;;;;;;;16.92;96.32;98381.25;5054694;28;20575;-79
2023/06/25 03:37:55;;;;;;;9.00;8.07;;;;;;;16.91;97.83;98381.50;5055321;28;20695;-79
2023/06/25 03:40:21;;;;;;;10.00;8.10;;;;;;;16.91;97.37;98379.66;5058013;28;20232;-79
2023/06/25 03:42:48;;;;;;;9.30;7.70;;;;;;;16.87;97.56;98375.84;5059181;28;20209;-79
2023/06/25 03:45:15;;;;;;;9.77;8.30;;;;;;;16.82;98.09;98378.47;5058782;28;20205;-79
2023/06/25 03:47:42;;;;;;;10.57;8.40;;;;;;;16.88;98.39;98374.75;5058765;28;20232;-79
2023/06/25 03:50:09;;;;;;;8.60;7.70;;;;;;;16.99;97.11;98362.28;5058962;28;20252;-79
2023/06/25 03:52:35;;;;;;;8.13;7.33;;;;;;;16.90;99.01;98369.16;5058445;28;20572;-79
2023/06/25 03:55:01;;;;;;;10.20;8.40;;;;;;;16.89;98.72;98371.03;5059001;28;20228;-79
2023/06/25 03:57:28;;;;;;;8.53;7.50;;;;;;;16.87;99.35;98378.53;5058066;28;20221;-79
2023/06/25 03:59:54;;;;;;;12.53;7.97;;;;;;;16.88;100.00;98374.75;5058320;28;20231;-79
2023/06/25 04:02:21;;;;;;;9.97;8.10;;;;;;;16.92;99.44;98372.41;5058761;28;20210;-79
2023/06/25 04:04:47;;;;;;;11.40;7.87;;;;;;;16.89;100.00;98373.72;5057831;28;20206;-79
2023/06/25 04:07:13;;;;;;;8.33;7.30;;;;;;;17.03;99.61;98369.59;5057981;28;20451;-79
2023/06/25 04:09:40;;;;;;;8.83;7.50;;;;;;;17.00;99.75;98370.09;5058106;28;20201;-79
2023/06/25 04:12:06;;;;;;;9.60;7.73;;;;;;;17.01;100.00;98373.59;5057718;28;20212;-79
2023/06/25 04:14:33;;;;;;;8.50;7.30;;;;;;;16.99;100.00;98371.16;5058265;28;20201;-79
2023/06/25 04:16:59;;;;;;;8.43;7.33;;;;;;;16.99;100.00;98370.31;5057897;28;20232;-79
2023/06/25 04:19:26;;;;;;;8.37;7.43;;;;;;;16.95;98.73;98370.03;5057918;28;20241;-79
2023/06/25 04:21:52;;;;;;;8.77;7.80;;;;;;;16.98;99.20;98371.41;5057692;28;20255;-79
2023/06/25 04:24:18;;;;;;;9.13;7.13;;;;;;;17.05;100.00;98367.44;5057840;28;20228;-79
2023/06/25 04:26:45;;;;;;;8.03;7.30;;;;;;;17.14;99.76;98360.56;5057920;28;20241;-79
2023/06/25 04:29:11;;;;;;;8.27;7.40;;;;;;;17.21;99.63;98358.50;5057694;28;20207;-79
2023/06/25 04:31:37;;;;;;;9.80;7.50;;;;;;;17.29;99.24;98358.00;5057656;28;20231;-79
2023/06/25 04:34:04;;;;;;;8.20;7.40;;;;;;;17.37;98.86;98359.44;5057686;28;20824;-79
2023/06/25 04:36:30;;;;;;;8.53;7.63;;;;;;;17.40;98.33;98351.72;5057503;28;20221;-79
2023/06/25 04:38:56;;;;;;;9.50;7.70;;;;;;;17.47;98.28;98346.94;5057152;28;20225;-79
2023/06/25 04:41:23;;;;;;;8.80;7.90;;;;;;;17.52;97.10;98355.06;5057969;28;20557;-79
2023/06/25 04:43:49;;;;;;;9.53;7.87;;;;;;;17.57;96.19;98356.97;5057200;28;20637;-79
2023/06/25 04:46:15;;;;;;;8.97;7.60;;;;;;;17.67;95.85;98349.81;5057104;28;20229;-79
2023/06/25 04:48:45;;;;;;;8.57;7.67;;;;;;;17.70;96.03;98352.00;5057000;28;20205;-79
2023/06/25 04:51:12;;;;;;;9.17;7.53;;;;;;;17.75;96.78;98343.97;5058088;28;20205;-79
2023/06/25 04:53:38;;;;;;;10.13;8.00;;;;;;;17.81;95.63;98347.47;5057789;28;20205;-79
2023/06/25 04:56:05;;;;;;;8.37;7.50;;;;;;;17.86;93.40;98351.03;5057724;28;20225;-79
2023/06/25 04:58:31;;;;;;;8.97;8.00;;;;;;;17.92;92.32;98351.88;5057377;28;20673;-79
2023/06/25 05:00:58;;;;;;;8.30;7.50;;;;;;;18.05;91.79;98349.53;5057256;28;20221;-79
2023/06/25 05:03:24;;;;;;;8.70;7.80;;;;;;;18.20;91.59;98359.59;5057577;28;20211;-79
2023/06/25 05:05:50;;;;;;;9.27;7.53;;;;;;;18.32;90.80;98354.81;5056961;28;20226;-79
2023/06/25 05:08:16;;;;;;;8.20;7.40;;;;;;;18.58;88.22;98359.28;5057415;28;20208;-79
2023/06/25 05:10:43;;;;;;;10.30;7.47;;;;;;;18.94;85.73;98361.03;5057547;28;20208;-79
2023/06/25 05:13:10;;;;;;;12.37;8.17;;;;;;;19.43;82.26;98359.56;5057407;28;20215;-79
2023/06/25 05:15:39;;;;;;;8.07;6.80;;;;;;;19.64;80.66;98353.91;5057218;28;20267;-79
2023/06/25 05:18:06;;;;;;;7.43;6.67;;;;;;;20.11;78.25;98352.88;5057036;28;20211;-79
2023/06/25 05:20:35;;;;;;;7.57;6.80;;;;;;;20.76;74.11;98364.25;5057379;28;20224;-79
2023/06/25 05:23:06;;;;;;;8.93;7.10;;;;;;;21.68;68.94;98369.72;5057035;28;20209;-79
2023/06/25 05:25:33;;;;;;;7.00;6.20;;;;;;;21.84;64.93;98373.16;5056729;28;20200;-79
2023/06/25 05:28:01;;;;;;;5.93;5.43;;;;;;;21.85;61.82;98369.34;5057348;28;20222;-79
2023/06/25 05:30:29;;;;;;;5.60;5.10;;;;;;;21.86;63.05;98370.97;5056823;28;20255;-79
2023/06/25 05:32:56;;;;;;;5.85;5.35;;;;;;;21.84;63.43;98373.16;5056907;28;20255;-79
2023/06/25 05:35:23;;;;;;;5.63;5.15;;;;;;;21.32;64.39;98378.34;5056136;28;20664;-80
2023/06/25 05:37:50;;;;;;;5.20;4.70;;;;;;;21.28;64.17;98375.41;5056637;28;20664;-79
2023/06/25 05:40:17;;;;;;;5.57;5.07;;;;;;;21.10;65.19;98373.34;5056419;28;20221;-79
2023/06/25 05:42:43;;;;;;;6.10;5.40;;;;;;;20.87;66.44;98373.13;5056525;28;20205;-79
2023/06/25 05:45:10;;;;;;;6.20;5.63;;;;;;;20.73;67.12;98372.13;5056899;28;20212;-79
2023/06/25 05:47:36;;;;;;;5.60;5.10;;;;;;;20.77;65.90;98373.19;5056724;28;20247;-79
2023/06/25 05:50:03;;;;;;;7.67;5.57;;;;;;;20.71;64.30;98371.59;5056626;28;20205;-79
2023/06/25 05:52:30;;;;;;;5.90;5.40;;;;;;;20.78;63.17;98374.78;5056601;28;20243;-79
2023/06/25 05:54:56;;;;;;;5.90;5.30;;;;;;;20.91;60.95;98382.34;5056417;28;20205;-79
2023/06/25 05:57:22;;;;;;;5.93;5.40;;;;;;;20.79;61.42;98381.84;5056843;28;20221;-79
2023/06/25 05:59:49;;;;;;;5.83;5.33;;;;;;;20.79;60.96;98382.63;5056144;28;20692;-79
2023/06/25 06:02:15;;;;;;;6.13;5.47;;;;;;;20.90;62.14;98375.31;5056045;28;20686;-79
2023/06/25 06:04:41;;;;;;;6.40;5.80;;;;;;;20.81;61.27;98368.84;5056035;28;20576;-79
2023/06/25 06:07:08;;;;;;;5.93;5.43;;;;;;;20.86;62.05;98371.53;5056926;28;20308;-79
2023/06/25 06:09:34;;;;;;;6.27;5.67;;;;;;;20.83;62.42;98372.91;5056497;28;20201;-78
2023/06/25 06:12:00;;;;;;;5.87;5.37;;;;;;;20.82;61.33;98374.00;5056431;28;20212;-79
2023/06/25 06:14:27;;;;;;;5.30;4.80;;;;;;;21.04;60.65;98374.47;5056154;28;20211;-79
2023/06/25 06:16:53;;;;;;;5.17;4.77;;;;;;;21.14;61.23;98379.81;5056295;28;20229;-79
2023/06/25 06:19:19;;;;;;;5.60;5.10;;;;;;;20.91;60.77;98374.25;5056486;28;20208;-79
2023/06/25 06:21:46;;;;;;;6.40;5.40;;;;;;;21.10;61.54;98384.16;5056034;28;20208;-79
2023/06/25 06:24:12;;;;;;;6.70;5.50;;;;;;;21.20;60.11;98369.78;5055047;28;20681;-79
2023/06/25 06:26:38;;;;;;;7.20;4.87;;;;;;;21.39;58.71;98376.94;5055117;28;20225;-79
2023/06/25 06:29:05;;;;;;;4.93;4.53;;;;;;;21.41;58.99;98369.38;5055075;28;20219;-79
2023/06/25 06:31:32;;;;;;;5.33;4.83;;;;;;;21.42;59.93;98383.69;5055537;28;20224;-79
2023/06/25 06:33:59;;;;;;;6.07;5.47;;;;;;;21.35;58.15;98377.78;5055209;28;20205;-79
2023/06/25 06:36:25;;;;;;;5.47;4.97;;;;;;;21.43;60.14;98371.81;5054795;28;20228;-79
2023/06/25 06:38:51;;;;;;;4.93;4.50;;;;;;;21.48;58.15;98377.97;5054709;28;20278;-79
2023/06/25 06:41:18;;;;;;;5.70;5.20;;;;;;;21.72;57.13;98380.81;5054671;28;20236;-79
2023/06/25 06:43:44;;;;;;;5.63;5.15;;;;;;;21.66;56.64;98376.50;5054284;28;20205;-79
2023/06/25 06:46:10;;;;;;;4.97;4.57;;;;;;;21.60;55.55;98378.44;5054386;28;20229;-79
2023/06/25 06:48:37;;;;;;;5.87;4.87;;;;;;;21.79;56.08;98376.69;5054991;28;20210;-79
2023/06/25 06:51:03;;;;;;;5.93;4.80;;;;;;;21.87;54.66;98380.69;5054624;28;20202;-79
2023/06/25 06:53:29;;;;;;;5.05;4.55;;;;;;;22.06;53.51;98374.28;5054955;28;20205;-79
2023/06/25 06:55:56;;;;;;;6.70;5.22;;;;;;;21.97;52.55;98372.50;5054957;28;20241;-79
2023/06/25 06:58:22;;;;;;;5.20;4.80;;;;;;;22.19;53.50;98370.94;5055161;28;20207;-79
2023/06/25 07:00:49;;;;;;;5.35;4.93;;;;;;;22.17;51.61;98372.31;5054875;28;20224;-79
2023/06/25 07:03:15;;;;;;;5.13;4.63;;;;;;;22.19;51.59;98365.50;5055043;28;20236;-79
2023/06/25 07:05:41;;;;;;;5.07;4.68;;;;;;;22.46;49.24;98373.13;5054404;28;20209;-79
2023/06/25 07:08:08;;;;;;;5.03;4.63;;;;;;;22.28;49.94;98361.09;5054783;28;20201;-79
2023/06/25 07:10:35;;;;;;;5.75;5.25;;;;;;;22.52;50.72;98366.56;5053682;28;20198;-79
2023/06/25 07:13:01;;;;;;;5.53;5.13;;;;;;;22.61;49.94;98364.84;5052951;28;20228;-78
2023/06/25 07:15:28;;;;;;;5.63;5.13;;;;;;;22.72;50.35;98371.75;5052946;28;20668;-78
2023/06/25 07:17:55;;;;;;;5.65;5.10;;;;;;;22.70;50.10;98365.81;5052883;28;20216;-78
2023/06/25 07:20:21;;;;;;;5.43;4.97;;;;;;;22.78;49.11;98368.69;5052753;28;20228;-78
2023/06/25 07:22:48;;;;;;;6.07;5.60;;;;;;;23.02;49.44;98376.81;5051859;28;20212;-78
2023/06/25 07:25:14;;;;;;;6.10;5.50;;;;;;;22.91;49.50;98378.00;5013585;28;1151751;-78
2023/06/25 07:27:40;;;;;;;6.10;5.50;;;;;;;23.09;49.89;98374.53;5053093;28;20232;-78
2023/06/25 07:30:07;;;;;;;6.45;5.85;;;;;;;23.10;50.57;98376.94;5053789;28;20201;-78
2023/06/25 07:32:34;;;;;;;7.38;5.80;;;;;;;22.71;50.32;98375.56;5055694;28;20687;-75
2023/06/25 07:35:00;;;;;;;6.30;5.70;;;;;;;23.05;52.18;98378.91;5053246;28;20228;-74
2023/06/25 07:37:26;;;;;;;6.30;5.70;;;;;;;23.28;49.66;98373.47;5052908;28;20232;-74
2023/06/25 07:39:53;;;;;;;6.53;5.78;;;;;;;23.13;49.75;98378.28;5052301;28;20303;-74
2023/06/25 07:42:19;;;;;;;6.75;6.05;;;;;;;23.21;49.59;98373.06;5052615;28;20687;-74
2023/06/25 07:44:46;;;;;;;7.03;5.88;;;;;;;23.32;50.05;98371.78;5052991;28;20213;-74
2023/06/25 07:47:12;;;;;;;6.65;6.05;;;;;;;23.41;49.26;98372.75;5053197;28;20225;-74
2023/06/25 07:49:38;;;;;;;6.10;5.47;;;;;;;23.57;48.11;98371.41;5052982;28;20209;-74
2023/06/25 07:52:05;;;;;;;7.07;6.47;;;;;;;23.59;47.90;98363.78;5052953;28;20205;-74
2023/06/25 07:54:31;;;;;;;7.15;6.53;;;;;;;23.63;46.95;98370.25;5053019;28;20212;-74
2023/06/25 07:56:58;;;;;;;6.70;6.10;;;;;;;24.07;45.98;98370.66;5052778;28;20232;-74
2023/06/25 07:59:24;;;;;;;7.03;6.35;;;;;;;23.94;45.71;98360.56;5052715;28;20205;-74
2023/06/25 08:01:51;;;;;;;6.28;5.75;;;;;;;24.06;46.59;98360.06;5052805;28;20323;-74
2023/06/25 08:04:17;;;;;;;6.78;6.20;;;;;;;24.32;45.33;98359.31;5052914;28;20628;-74
2023/06/25 08:06:43;;;;;;;6.97;6.28;;;;;;;24.41;42.31;98351.25;5052839;28;20221;-74
2023/06/25 08:09:10;;;;;;;6.97;6.38;;;;;;;24.60;42.65;98352.03;5052845;28;20236;-74
2023/06/25 08:11:36;;;;;;;6.97;6.38;;;;;;;24.63;43.18;98346.78;5052710;28;20205;-74
2023/06/25 08:14:02;;;;;;;8.00;6.60;;;;;;;24.70;42.30;98349.09;5052845;28;20201;-74
2023/06/25 08:16:29;;;;;;;7.30;6.55;;;;;;;24.80;41.33;98357.06;5052692;28;20232;-74
2023/06/25 08:18:56;;;;;;;7.85;6.80;;;;;;;24.73;41.18;98352.03;5052281;28;20216;-74
2023/06/25 08:21:22;;;;;;;7.35;6.65;;;;;;;25.00;40.89;98343.03;5052804;28;20225;-74
2023/06/25 08:23:48;;;;;;;6.72;6.13;;;;;;;25.03;40.13;98348.69;5052687;28;20578;-74
2023/06/25 08:26:15;;;;;;;7.40;6.70;;;;;;;25.19;40.39;98346.44;5055939;28;20712;-74
2023/06/25 08:28:42;;;;;;;7.30;6.60;;;;;;;25.33;39.07;98345.31;5056174;28;20201;-74
2023/06/25 08:31:10;;;;;;;7.10;6.45;;;;;;;25.26;39.10;98341.38;5056200;28;20205;-74
2023/06/25 08:33:38;;;;;;;6.80;6.20;;;;;;;25.56;38.72;98337.97;5055988;28;20239;-74
2023/06/25 08:36:04;;;;;;;7.25;6.53;;;;;;;25.27;37.69;98329.38;5056045;28;20229;-74
2023/06/25 08:38:32;;;;;;;7.85;7.05;;;;;;;25.49;38.43;98343.03;5056160;28;20212;-75
2023/06/25 08:40:59;;;;;;;6.72;6.13;;;;;;;25.39;37.12;98343.28;5055482;28;20225;-74
2023/06/25 08:43:25;;;;;;;7.18;6.57;;;;;;;25.50;37.27;98344.63;5055944;28;20220;-74
2023/06/25 08:45:52;;;;;;;7.30;6.63;;;;;;;25.53;37.45;98335.88;5055586;28;20225;-74
2023/06/25 08:48:18;;;;;;;6.85;6.25;;;;;;;25.96;37.40;98342.47;5055717;28;20217;-74
2023/06/25 08:51:01;;;;;;;6.97;6.38;;;;;;;25.72;36.99;98336.50;5055483;28;20665;-74
2023/06/25 08:53:33;;;;;;;6.55;6.05;;;;;;;25.80;36.88;98338.47;5055729;28;20629;-74
2023/06/25 08:56:02;;;;;;;7.03;6.53;;;;;;;25.97;36.50;98328.50;5055372;28;20721;-74
2023/06/25 08:58:29;;;;;;;6.82;6.30;;;;;;;26.13;36.33;98332.47;5055721;28;20300;-74
2023/06/25 09:00:55;;;;;;;7.53;6.78;;;;;;;26.27;35.29;98327.72;5055893;28;20229;-74
2023/06/25 09:03:22;;;;;;;7.45;6.82;;;;;;;26.38;34.93;98331.78;5055583;28;20291;-74
2023/06/25 09:05:54;;;;;;;8.20;6.78;;;;;;;26.28;34.98;98329.34;5055118;28;20704;-74
2023/06/25 09:08:23;;;;;;;6.72;6.13;;;;;;;26.04;35.30;98330.78;5055267;28;20624;-74
2023/06/25 09:10:51;;;;;;;6.43;5.93;;;;;;;25.90;35.11;98327.31;5055323;28;20308;-74
2023/06/25 09:13:28;;;;;;;7.43;6.82;;;;;;;25.37;35.12;98329.19;5055468;28;20205;-74
2023/06/25 09:16:05;;;;;;;6.30;5.80;;;;;;;25.56;35.84;98324.38;5055403;28;20255;-74
2023/06/25 09:18:32;;;;;;;7.32;6.63;;;;;;;26.00;36.70;98317.00;5055406;28;20200;-74
2023/06/25 09:21:09;;;;;;;7.10;6.50;;;;;;;26.10;35.72;98326.84;5055064;28;20228;-74
2023/06/25 09:23:35;;;;;;;7.35;6.65;;;;;;;25.96;35.32;98316.00;5054847;28;20209;-74
2023/06/25 09:26:08;;;;;;;7.45;6.72;;;;;;;26.54;34.66;98315.81;5055146;28;20225;-74
2023/06/25 09:28:35;;;;;;;7.07;6.38;;;;;;;26.84;33.71;98323.16;5055272;28;20189;-74
2023/06/25 09:31:02;;;;;;;6.90;6.40;;;;;;;26.77;33.00;98317.34;5055160;28;20201;-74
2023/06/25 09:33:34;;;;;;;6.57;5.97;;;;;;;26.85;33.43;98309.22;5055003;28;20208;-74
2023/06/25 09:36:04;;;;;;;7.03;6.32;;;;;;;26.97;31.59;98311.31;5053709;28;20599;-74
2023/06/25 09:38:31;;;;;;;7.25;6.55;;;;;;;26.89;33.35;98301.19;5055726;28;20291;-74
2023/06/25 09:40:59;;;;;;;7.78;6.10;;;;;;;27.26;32.16;98308.81;5054817;28;20252;-74
2023/06/25 09:43:27;;;;;;;7.40;6.70;;;;;;;27.34;32.10;98310.75;5054681;28;20205;-74
2023/06/25 09:45:54;;;;;;;7.15;6.45;;;;;;;26.94;32.73;98303.75;5054630;28;20225;-74
2023/06/25 09:48:24;;;;;;;7.43;6.82;;;;;;;27.40;31.58;98305.94;5054702;28;20205;-74
2023/06/25 09:50:51;;;;;;;6.95;6.35;;;;;;;27.67;31.98;98300.13;5054320;28;20205;-74
2023/06/25 09:53:22;;;;;;;7.50;6.80;;;;;;;27.62;30.73;98301.09;5054949;28;20572;-74
2023/06/25 09:55:50;;;;;;;7.63;6.93;;;;;;;27.77;31.78;98292.41;5054521;28;20231;-74
2023/06/25 09:58:19;;;;;;;6.68;6.18;;;;;;;27.98;29.83;98295.28;5052962;28;20684;-74
2023/06/25 10:00:46;;;;;;;6.45;5.95;;;;;;;27.74;30.14;98284.84;5054457;28;20232;-74
2023/06/25 10:03:14;;;;;;;6.85;6.25;;;;;;;28.15;29.05;98285.09;5054269;28;20568;-74
2023/06/25 10:05:40;;;;;;;6.88;6.28;;;;;;;28.25;29.24;98281.22;5053748;28;20572;-74
2023/06/25 10:08:07;;;;;;;7.05;6.45;;;;;;;28.35;28.56;98278.88;5054266;28;20215;-74
2023/06/25 10:10:33;;;;;;;7.20;6.50;;;;;;;28.08;28.27;98278.53;5054284;28;20691;-74
2023/06/25 10:13:03;;;;;;;6.63;6.13;;;;;;;28.25;29.38;98273.78;5054410;28;20205;-74
2023/06/25 10:15:39;;;;;;;7.10;6.50;;;;;;;28.32;28.44;98274.09;5054230;28;20193;-74
2023/06/25 10:18:06;;;;;;;7.38;6.78;;;;;;;28.31;28.03;98272.47;5054205;28;20192;-74
2023/06/25 10:20:35;;;;;;;7.15;6.45;;;;;;;28.24;27.61;98271.38;5053787;28;20696;-74
2023/06/25 10:23:05;;;;;;;7.57;6.60;;;;;;;28.41;28.37;98274.09;5053781;28;20232;-74
2023/06/25 10:25:32;;;;;;;7.20;6.60;;;;;;;28.44;27.99;98276.16;5052446;28;20201;-74
2023/06/25 10:28:13;;;;;;;7.18;6.60;;;;;;;28.61;28.50;98265.94;5051751;28;20739;-74
2023/06/25 10:30:46;;;;;;;7.22;6.63;;;;;;;28.47;27.56;98270.84;5052521;28;20209;-74
2023/06/25 10:33:15;;;;;;;7.22;6.53;;;;;;;28.26;27.72;98258.19;5052543;28;20197;-74
2023/06/25 10:35:43;;;;;;;7.20;6.47;;;;;;;28.25;26.80;98256.59;5052296;28;20259;-74
2023/06/25 10:38:10;;;;;;;6.38;5.85;;;;;;;28.31;27.03;98249.81;5063078;28;20908;-74
2023/06/25 10:40:38;;;;;;;6.97;6.28;;;;;;;28.60;27.21;98256.13;5062598;28;20218;-74
2023/06/25 10:43:05;;;;;;;7.28;6.65;;;;;;;28.43;26.08;98252.69;5061210;28;20197;-74
2023/06/25 10:45:32;;;;;;;6.97;6.28;;;;;;;28.74;26.55;98240.25;5062410;28;20196;-74
2023/06/25 10:48:11;;;;;;;6.70;6.15;;;;;;;28.43;26.75;98239.81;5062599;28;20201;-74
2023/06/25 10:50:38;;;;;;;7.28;6.05;;;;;;;28.62;25.69;98239.38;5062740;28;20201;-75
2023/06/25 10:53:12;;;;;;;6.55;5.97;;;;;;;28.75;25.30;98252.81;5060816;28;20691;-74
2023/06/25 10:55:41;;;;;;;7.20;6.55;;;;;;;28.66;24.93;98243.84;5061224;28;20630;-74
2023/06/25 10:58:08;;;;;;;6.90;6.30;;;;;;;28.85;26.09;98243.41;5060992;28;20664;-74
2023/06/25 11:00:34;;;;;;;6.57;6.05;;;;;;;29.04;26.75;98247.34;5062038;28;20193;-74
2023/06/25 11:03:01;;;;;;;7.15;6.55;;;;;;;28.86;27.05;98243.09;5062758;28;20212;-74
2023/06/25 11:05:36;;;;;;;7.80;7.10;;;;;;;28.62;27.10;98239.38;5061200;28;20201;-74
2023/06/25 11:08:05;;;;;;;7.88;7.22;;;;;;;28.86;27.23;98243.09;5061163;28;20229;-74
2023/06/25 11:10:33;;;;;;;9.50;6.68;;;;;;;28.90;25.92;98243.22;5061024;28;20607;-74
2023/06/25 11:13:00;;;;;;;7.28;6.57;;;;;;;29.14;25.50;98226.94;5062304;28;20211;-74
2023/06/25 11:15:32;;;;;;;6.68;6.07;;;;;;;29.11;24.75;98216.69;5060775;28;20208;-74
2023/06/25 11:17:59;;;;;;;7.50;6.90;;;;;;;29.14;25.48;98222.28;5060680;28;20235;-74
2023/06/25 11:20:26;;;;;;;6.82;6.32;;;;;;;29.36;25.41;98221.94;5062041;28;20197;-74
2023/06/25 11:22:55;;;;;;;6.68;6.10;;;;;;;29.10;25.63;98223.28;5061247;28;20563;-74
2023/06/25 11:25:24;;;;;;;7.10;6.50;;;;;;;28.83;25.97;98227.31;5060877;28;20194;-74
2023/06/25 11:28:06;;;;;;;6.85;6.35;;;;;;;28.72;26.31;98215.19;5061256;28;20216;-74
2023/06/25 11:30:32;;;;;;;7.43;6.80;;;;;;;28.80;26.38;98213.50;5062357;28;20193;-74
2023/06/25 11:33:16;;;;;;;7.13;6.53;;;;;;;28.87;25.95;98202.81;5060499;28;20686;-74